Time;durP1;ratioP1;P1;durP2;ratioP2;P2;SDS_P1;SDS_P2;PMS_P1;PMS_P2;Temp;Humidity;BMP_temperature;BMP_pressure;BME280_temperature;BME280_humidity;BME280_pressure;Samples;Min_cycle;Max_cycle;Signal;HPM_P1;HPM_P2
2022/08/03 00:00:40;;;;;;;15.15;2.88;;;;;;;20.89;58.97;93049.50;2071461;69;20221;-72
2022/08/03 00:03:05;;;;;;;9.90;2.80;;;;;;;20.88;59.48;93045.16;2071405;69;20152;-72
2022/08/03 00:05:34;;;;;;;12.18;2.47;;;;;;;20.80;59.72;93043.56;2071481;69;20210;-72
2022/08/03 00:08:00;;;;;;;14.52;3.08;;;;;;;20.65;60.10;93038.81;2071397;69;20213;-72
2022/08/03 00:10:26;;;;;;;5.65;2.20;;;;;;;20.66;60.44;93039.53;2068335;69;20156;-73
2022/08/03 00:12:57;;;;;;;11.00;3.10;;;;;;;20.58;60.64;93042.19;2071553;69;20541;-72
2022/08/03 00:15:22;;;;;;;12.80;2.90;;;;;;;20.64;59.19;93033.78;2071697;69;20125;-72
2022/08/03 00:17:48;;;;;;;13.75;3.08;;;;;;;20.66;59.36;93033.81;2071391;69;20151;-72
2022/08/03 00:20:14;;;;;;;12.65;2.83;;;;;;;20.53;59.98;93033.50;2068125;69;20213;-72
2022/08/03 00:22:39;;;;;;;10.23;2.60;;;;;;;20.68;59.76;93031.03;2071497;69;20140;-72
2022/08/03 00:25:05;;;;;;;7.93;2.35;;;;;;;20.39;60.95;93023.72;2071337;69;20305;-72
2022/08/03 00:27:31;;;;;;;10.88;2.92;;;;;;;20.46;60.62;93016.78;2071456;69;20302;-72
2022/08/03 00:29:57;;;;;;;7.25;2.50;;;;;;;20.46;60.27;93016.78;2067997;69;20140;-72
2022/08/03 00:32:23;;;;;;;12.95;2.80;;;;;;;20.35;61.22;93018.63;2070946;69;20174;-72
2022/08/03 00:34:48;;;;;;;16.58;3.53;;;;;;;20.26;60.46;93023.38;2070486;69;20160;-72
2022/08/03 00:37:14;;;;;;;14.27;3.50;;;;;;;20.37;59.75;93012.97;2070607;69;20171;-71
2022/08/03 00:39:42;;;;;;;6.85;2.83;;;;;;;20.28;60.93;93011.25;2070790;69;20140;-72
2022/08/03 00:42:08;;;;;;;9.10;2.40;;;;;;;20.45;59.50;93023.91;2071328;69;20136;-71
2022/08/03 00:44:42;;;;;;;11.57;3.03;;;;;;;20.03;60.26;93024.09;2071110;69;20296;-72
2022/08/03 00:47:09;;;;;;;13.23;3.03;;;;;;;20.00;60.49;93019.72;2071132;69;20151;-72
2022/08/03 00:49:36;;;;;;;6.93;2.28;;;;;;;20.16;59.84;93017.34;2071077;69;20247;-71
2022/08/03 00:52:02;;;;;;;10.80;2.90;;;;;;;20.20;59.90;93025.31;2071230;69;20198;-72
2022/08/03 00:54:29;;;;;;;9.85;2.67;;;;;;;19.64;62.30;93025.00;2071244;69;20184;-72
2022/08/03 00:56:54;;;;;;;15.85;3.30;;;;;;;19.83;60.45;93023.44;2071212;69;20239;-72
2022/08/03 00:59:21;;;;;;;7.72;2.65;;;;;;;19.86;61.19;93024.97;2071156;69;20761;-72
2022/08/03 01:01:47;;;;;;;11.30;3.00;;;;;;;19.78;61.54;93011.88;2070791;69;20199;-72
2022/08/03 01:04:12;;;;;;;9.93;2.90;;;;;;;20.01;60.74;93010.47;2071321;69;20128;-72
2022/08/03 01:07:20;;;;;;;9.77;2.88;;;;;;;20.05;59.94;93021.28;2071486;69;20251;-72
2022/08/03 01:10:05;;;;;;;8.90;2.55;;;;;;;19.97;60.65;93021.03;2068972;69;20154;-72
2022/08/03 01:12:57;;;;;;;9.23;2.45;;;;;;;19.94;60.57;93019.53;2068257;69;20148;-72
2022/08/03 01:15:40;;;;;;;14.15;3.30;;;;;;;19.67;60.81;93020.81;2070620;69;20167;-72
2022/08/03 01:18:37;;;;;;;12.15;3.30;;;;;;;19.91;60.24;93023.72;2071340;69;20139;-72
2022/08/03 01:21:11;;;;;;;11.07;3.00;;;;;;;19.96;58.52;93025.28;2071122;69;20158;-72
2022/08/03 01:23:55;;;;;;;9.73;2.75;;;;;;;19.87;60.92;93020.72;2068092;69;20227;-72
2022/08/03 01:26:47;;;;;;;15.32;3.22;;;;;;;19.90;60.57;93025.09;2071563;69;20640;-72
2022/08/03 01:29:18;;;;;;;8.27;2.35;;;;;;;19.93;59.92;93015.94;2071420;69;20202;-72
2022/08/03 01:31:52;;;;;;;15.02;2.95;;;;;;;19.94;59.97;93017.41;2071408;69;20164;-72
2022/08/03 01:34:19;;;;;;;22.15;3.58;;;;;;;19.89;60.55;93009.38;2070905;69;20234;-72
2022/08/03 01:36:52;;;;;;;15.38;3.10;;;;;;;19.66;61.27;93020.09;2071479;69;20180;-72
2022/08/03 01:39:19;;;;;;;10.65;2.88;;;;;;;19.52;60.72;93006.06;2071423;69;20167;-72
2022/08/03 01:42:01;;;;;;;9.63;2.80;;;;;;;19.65;59.84;93017.88;2071407;69;20600;-72
2022/08/03 01:44:31;;;;;;;7.35;2.33;;;;;;;19.66;59.73;93014.38;2071427;69;20191;-72
2022/08/03 01:47:01;;;;;;;9.80;2.67;;;;;;;19.63;60.96;93010.00;2071407;69;20519;-72
2022/08/03 01:49:30;;;;;;;11.38;2.53;;;;;;;19.66;60.48;93016.50;2071312;69;20338;-72
2022/08/03 01:51:58;;;;;;;15.70;3.15;;;;;;;19.69;59.08;93021.59;2071457;69;20645;-72
2022/08/03 01:54:25;;;;;;;15.15;3.20;;;;;;;19.48;60.10;93010.91;2071460;69;20668;-72
2022/08/03 01:56:53;;;;;;;12.32;2.83;;;;;;;19.34;61.56;93010.44;2071412;69;20193;-72
2022/08/03 01:59:20;;;;;;;11.65;2.75;;;;;;;19.38;62.05;93011.31;2071425;69;20519;-72
2022/08/03 02:01:48;;;;;;;14.88;3.22;;;;;;;19.27;62.39;93010.22;2071372;69;20152;-72
2022/08/03 02:04:17;;;;;;;14.45;3.13;;;;;;;19.44;61.64;93005.06;2071368;69;20567;-72
2022/08/03 02:06:45;;;;;;;15.57;3.22;;;;;;;19.44;60.70;93016.47;2071505;69;20639;-72
2022/08/03 02:09:13;;;;;;;10.93;2.85;;;;;;;19.50;59.55;93008.09;2071428;69;20144;-71
2022/08/03 02:11:40;;;;;;;24.35;3.85;;;;;;;19.14;61.16;93002.63;2071429;69;20494;-72
2022/08/03 02:14:08;;;;;;;7.80;2.90;;;;;;;19.36;60.57;93004.78;2071442;69;20143;-72
2022/08/03 02:16:35;;;;;;;8.93;2.85;;;;;;;19.16;61.59;93008.44;2071340;69;20152;-72
2022/08/03 02:19:05;;;;;;;10.00;2.72;;;;;;;19.13;61.31;93004.03;2071332;69;20223;-72
2022/08/03 02:21:34;;;;;;;8.82;2.50;;;;;;;19.26;60.73;93008.75;2071606;69;20234;-72
2022/08/03 02:24:01;;;;;;;10.65;2.70;;;;;;;19.17;61.98;93012.75;2071393;69;20305;-72
2022/08/03 02:26:29;;;;;;;14.70;2.97;;;;;;;19.22;60.98;93013.59;2071319;69;20139;-72
2022/08/03 02:28:58;;;;;;;7.57;3.08;;;;;;;19.22;59.80;93013.59;2071467;69;20243;-72
2022/08/03 02:31:28;;;;;;;10.32;3.00;;;;;;;19.14;61.78;93013.31;2071451;69;20144;-72
2022/08/03 02:34:02;;;;;;;13.45;3.05;;;;;;;18.75;62.57;93012.72;2071252;69;20208;-72
2022/08/03 02:36:30;;;;;;;11.27;3.35;;;;;;;18.86;63.04;93013.81;2071281;69;20180;-72
2022/08/03 02:38:59;;;;;;;15.25;3.10;;;;;;;19.12;60.87;93013.25;2071516;69;20141;-72
2022/08/03 02:41:37;;;;;;;13.75;3.38;;;;;;;19.03;61.49;93010.13;2071357;69;20637;-72
2022/08/03 02:44:07;;;;;;;12.23;2.78;;;;;;;18.67;63.39;93011.69;2068011;69;20176;-72
2022/08/03 02:46:37;;;;;;;26.33;4.15;;;;;;;18.84;62.18;93007.31;2071212;69;20148;-72
2022/08/03 02:49:04;;;;;;;24.45;4.18;;;;;;;18.90;61.88;93013.94;2071092;69;20152;-72
2022/08/03 02:51:32;;;;;;;6.72;2.65;;;;;;;18.95;61.67;93003.41;2071253;69;20144;-72
2022/08/03 02:54:00;;;;;;;15.48;3.35;;;;;;;18.74;63.53;93007.69;2068124;69;20152;-72
2022/08/03 02:56:27;;;;;;;11.57;2.63;;;;;;;19.02;60.67;93011.53;2071264;69;20583;-72
2022/08/03 02:58:54;;;;;;;10.02;2.83;;;;;;;19.03;61.00;93000.84;2068012;69;20241;-72
2022/08/03 03:01:23;;;;;;;5.90;2.55;;;;;;;19.03;60.10;93000.84;2071368;69;20125;-72
2022/08/03 03:03:51;;;;;;;12.68;3.25;;;;;;;18.82;61.68;93015.78;2071170;69;20242;-72
2022/08/03 03:06:18;;;;;;;11.73;2.67;;;;;;;18.87;61.04;93011.69;2071266;69;20286;-72
2022/08/03 03:08:45;;;;;;;12.68;2.97;;;;;;;18.91;60.83;93006.84;2067913;69;20152;-72
2022/08/03 03:11:12;;;;;;;15.68;3.60;;;;;;;18.84;60.44;93015.88;2071347;69;20145;-72
2022/08/03 03:13:40;;;;;;;12.35;2.88;;;;;;;18.92;60.64;93008.34;2071217;69;20170;-72
2022/08/03 03:16:07;;;;;;;12.32;3.13;;;;;;;18.86;60.76;93013.06;2071275;69;20222;-71
2022/08/03 03:18:34;;;;;;;12.85;3.10;;;;;;;18.76;61.55;93016.31;2067964;69;20673;-72
2022/08/03 03:21:02;;;;;;;14.55;3.42;;;;;;;18.68;62.27;92999.59;2071151;69;20160;-72
2022/08/03 03:23:28;;;;;;;16.80;3.58;;;;;;;18.45;63.42;93012.31;2071160;69;20271;-72
2022/08/03 03:25:55;;;;;;;12.15;3.45;;;;;;;18.59;61.79;93005.69;2071257;69;20156;-72
2022/08/03 03:28:22;;;;;;;9.80;2.88;;;;;;;18.54;62.41;93011.22;2071203;69;20187;-72
2022/08/03 03:30:48;;;;;;;13.35;3.42;;;;;;;18.56;62.23;93016.28;2071224;69;20176;-72
2022/08/03 03:33:14;;;;;;;9.23;2.90;;;;;;;18.59;62.45;93005.69;2071001;69;20154;-72
2022/08/03 03:35:42;;;;;;;9.32;2.67;;;;;;;18.49;63.23;93015.31;2071211;69;20137;-72
2022/08/03 03:38:08;;;;;;;11.00;2.88;;;;;;;18.50;62.63;93013.19;2071134;69;20575;-72
2022/08/03 03:40:35;;;;;;;12.48;3.30;;;;;;;18.60;61.64;93018.53;2071270;69;20217;-72
2022/08/03 03:43:01;;;;;;;16.30;3.40;;;;;;;18.87;59.53;93009.56;2071137;69;20608;-72
2022/08/03 03:45:29;;;;;;;11.27;3.13;;;;;;;18.50;62.13;93018.91;2070751;69;20209;-72
2022/08/03 03:47:55;;;;;;;21.10;3.85;;;;;;;18.71;60.66;93017.56;2067723;69;20163;-72
2022/08/03 03:50:22;;;;;;;8.13;2.70;;;;;;;18.65;60.92;93025.88;2067583;69;20140;-72
2022/08/03 03:52:48;;;;;;;9.45;2.70;;;;;;;18.63;60.63;93017.97;2071262;69;20228;-72
2022/08/03 03:55:17;;;;;;;11.27;3.00;;;;;;;18.51;61.91;93018.25;2072244;69;20296;-71
2022/08/03 03:57:44;;;;;;;13.23;3.03;;;;;;;18.51;61.66;93011.84;2071105;69;20144;-71
2022/08/03 04:00:12;;;;;;;12.13;2.95;;;;;;;18.19;62.96;93009.25;2068293;69;20221;-71
2022/08/03 04:02:38;;;;;;;18.20;4.95;;;;;;;18.46;61.67;93013.06;2067803;69;20163;-71
2022/08/03 04:10:59;;;;;;;8.13;2.80;;;;;;;18.28;63.66;93013.88;2072281;69;20155;-71
2022/08/03 04:13:50;;;;;;;15.93;3.38;;;;;;;18.48;62.25;93022.41;2072940;69;20148;-71
2022/08/03 04:16:20;;;;;;;22.83;3.83;;;;;;;18.64;60.93;93024.38;2066198;69;20151;-71
2022/08/03 04:18:51;;;;;;;24.60;3.90;;;;;;;18.63;60.71;93020.09;2074473;69;20162;-72
2022/08/03 04:21:20;;;;;;;21.63;4.93;;;;;;;18.61;60.50;93031.44;2071041;69;20187;-71
2022/08/03 04:23:48;;;;;;;60.70;16.23;;;;;;;18.53;61.06;93026.88;2074304;69;20271;-71
2022/08/03 04:26:21;;;;;;;24.73;5.63;;;;;;;18.56;60.23;93032.66;2074351;69;20152;-71
2022/08/03 04:28:49;;;;;;;;;;;;;;;18.50;60.67;93028.19;2074753;69;20205;-71
2022/08/03 04:31:19;;;;;;;12.15;3.88;;;;;;;18.49;62.38;93029.56;2071054;69;20051;-71
2022/08/03 04:33:45;;;;;;;16.83;4.32;;;;;;;18.39;61.94;93028.47;2074292;69;20147;-71
2022/08/03 04:36:15;;;;;;;19.83;4.93;;;;;;;18.47;61.62;93035.22;2070981;69;20555;-71
2022/08/03 04:38:58;;;;;;;16.67;3.88;;;;;;;18.40;62.33;93035.63;2074384;69;20243;-71
2022/08/03 04:41:27;;;;;;;19.67;4.00;;;;;;;18.46;61.67;93038.72;2074371;69;20152;-71
2022/08/03 04:43:56;;;;;;;7.90;3.97;;;;;;;18.43;62.17;93037.91;2074360;69;20155;-71
2022/08/03 04:46:25;;;;;;;7.50;3.22;;;;;;;18.36;63.44;93044.03;2073062;69;20168;-71
2022/08/03 04:48:51;;;;;;;12.63;4.90;;;;;;;18.24;63.06;93050.03;2068043;69;20620;-71
2022/08/03 04:51:16;;;;;;;17.38;4.90;;;;;;;17.90;64.74;93047.28;2071694;69;20316;-70
2022/08/03 04:53:42;;;;;;;12.05;3.60;;;;;;;18.01;62.86;93049.16;2071494;69;20199;-71
2022/08/03 04:56:08;;;;;;;17.63;3.92;;;;;;;18.26;62.59;93050.81;2071487;69;20163;-71
2022/08/03 04:58:35;;;;;;;15.98;4.00;;;;;;;18.24;62.19;93055.72;2071499;69;20591;-71
2022/08/03 05:01:01;;;;;;;15.88;3.83;;;;;;;18.17;63.44;93057.59;2071471;69;20129;-70
2022/08/03 05:03:26;;;;;;;9.00;3.45;;;;;;;18.17;62.63;93051.16;2071412;69;20140;-70
2022/08/03 05:05:54;;;;;;;20.45;4.55;;;;;;;18.22;63.40;93061.31;2071405;69;20139;-71
2022/08/03 05:08:19;;;;;;;9.95;3.40;;;;;;;18.18;63.30;93056.19;2071607;69;20547;-71
2022/08/03 05:10:46;;;;;;;12.32;3.85;;;;;;;18.13;64.16;93060.28;2071569;69;20140;-71
2022/08/03 05:13:12;;;;;;;11.88;3.67;;;;;;;18.11;64.08;93054.53;2071416;69;20502;-71
2022/08/03 05:15:38;;;;;;;12.18;3.78;;;;;;;18.16;62.97;93058.97;2068146;69;20148;-71
2022/08/03 05:18:04;;;;;;;14.50;3.85;;;;;;;18.12;64.85;93060.94;2071442;69;20156;-71
2022/08/03 05:20:30;;;;;;;13.50;3.42;;;;;;;18.22;63.44;93055.63;2071396;69;20150;-71
2022/08/03 05:22:58;;;;;;;11.60;3.30;;;;;;;18.18;62.81;93059.06;2071435;69;20172;-71
2022/08/03 05:25:23;;;;;;;12.73;3.55;;;;;;;18.01;64.67;93069.09;2071474;69;20491;-71
2022/08/03 05:27:49;;;;;;;15.82;4.38;;;;;;;18.31;62.55;93059.53;2071487;69;20152;-71
2022/08/03 05:30:16;;;;;;;12.57;3.67;;;;;;;18.29;63.15;93065.88;2067998;69;20152;-70
2022/08/03 05:32:41;;;;;;;18.60;4.60;;;;;;;18.24;62.24;93072.81;2071413;69;20148;-71
2022/08/03 05:35:07;;;;;;;21.35;4.53;;;;;;;18.23;63.41;93066.38;2072047;69;20532;-71
2022/08/03 05:37:33;;;;;;;13.98;4.60;;;;;;;18.31;63.34;93065.94;2074826;69;20201;-72
2022/08/03 05:39:59;;;;;;;37.22;10.77;;;;;;;18.19;63.05;93069.09;2074798;69;20148;-73
2022/08/03 05:42:25;;;;;;;17.15;5.10;;;;;;;18.23;62.20;93071.34;2074750;69;20132;-73
2022/08/03 05:44:50;;;;;;;30.80;7.82;;;;;;;18.37;62.33;93065.44;2074804;69;20238;-72
2022/08/03 05:47:16;;;;;;;14.13;3.97;;;;;;;18.39;61.52;93065.53;2074716;69;20571;-72
2022/08/03 05:49:43;;;;;;;14.88;3.45;;;;;;;18.49;59.68;93060.22;2074769;69;20238;-73
2022/08/03 05:52:09;;;;;;;10.82;3.53;;;;;;;18.50;61.30;93055.97;2074707;69;20155;-72
2022/08/03 05:54:35;;;;;;;12.35;3.03;;;;;;;18.60;60.26;93049.91;2074961;69;20157;-73
2022/08/03 05:57:01;;;;;;;17.65;4.75;;;;;;;18.52;61.55;93053.19;2071304;69;20205;-73
2022/08/03 05:59:26;;;;;;;9.20;2.72;;;;;;;18.58;61.43;93047.00;2074801;69;20653;-74
2022/08/03 06:01:52;;;;;;;19.88;3.92;;;;;;;18.82;59.80;93055.72;2074656;69;20234;-73
2022/08/03 06:04:17;;;;;;;15.48;3.58;;;;;;;18.53;61.47;93046.09;2074558;69;20152;-73
2022/08/03 06:06:43;;;;;;;15.98;3.60;;;;;;;18.55;60.96;93051.88;2074914;69;20136;-72
2022/08/03 06:09:12;;;;;;;19.45;4.15;;;;;;;18.47;59.76;93043.03;2074631;69;20175;-72
2022/08/03 06:11:39;;;;;;;83.25;43.67;;;;;;;18.49;60.19;93043.09;2071787;69;20617;-72
2022/08/03 06:14:05;;;;;;;26.45;9.88;;;;;;;18.42;59.97;93045.00;2071293;69;20231;-72
2022/08/03 06:16:32;;;;;;;23.23;8.82;;;;;;;18.53;60.40;93049.69;2071373;69;20152;-72
2022/08/03 06:18:58;;;;;;;26.95;10.38;;;;;;;18.37;60.70;93034.09;2071296;69;20168;-72
2022/08/03 06:21:23;;;;;;;28.65;10.23;;;;;;;18.67;59.68;93046.63;2071354;69;20155;-72
2022/08/03 06:23:49;;;;;;;32.13;8.77;;;;;;;18.58;60.98;93039.16;2071319;69;20129;-72
2022/08/03 06:26:15;;;;;;;12.23;3.67;;;;;;;18.69;60.63;93043.13;2071339;69;20205;-72
2022/08/03 06:28:44;;;;;;;7.45;2.40;;;;;;;18.46;60.86;93039.47;2067966;69;20559;-72
2022/08/03 06:31:09;;;;;;;8.68;2.83;;;;;;;18.68;60.94;93048.06;2071576;69;20239;-72
2022/08/03 06:33:35;;;;;;;10.07;2.70;;;;;;;18.68;61.14;93042.38;2074666;69;20668;-72
2022/08/03 06:36:00;;;;;;;4.28;2.33;;;;;;;18.74;61.06;93053.31;2074745;69;20143;-72
2022/08/03 06:38:28;;;;;;;7.45;2.50;;;;;;;18.97;59.01;93049.13;2074770;69;20569;-72
2022/08/03 06:40:54;;;;;;;6.85;2.50;;;;;;;18.90;59.98;93045.31;2074888;69;20147;-72
2022/08/03 06:43:19;;;;;;;6.15;2.58;;;;;;;18.95;60.53;93049.06;2074606;69;20143;-73
2022/08/03 06:45:45;;;;;;;8.55;2.80;;;;;;;18.75;61.69;93046.22;2074638;69;20549;-73
2022/08/03 06:48:11;;;;;;;10.57;2.65;;;;;;;19.18;59.34;93037.03;2068452;69;20140;-72
2022/08/03 06:50:40;;;;;;;9.73;3.60;;;;;;;19.35;60.58;93040.44;2074758;69;20187;-72
2022/08/03 06:53:06;;;;;;;8.02;2.80;;;;;;;19.34;62.01;93041.84;2074437;69;20152;-71
2022/08/03 06:55:31;;;;;;;24.10;8.95;;;;;;;19.41;60.37;93041.38;2074565;69;20223;-72
2022/08/03 06:57:57;;;;;;;5.43;2.30;;;;;;;19.55;59.39;93038.97;2071373;69;20558;-73
2022/08/03 07:00:23;;;;;;;44.05;21.33;;;;;;;19.68;57.68;93034.44;2071460;69;20140;-72
2022/08/03 07:02:49;;;;;;;15.70;3.15;;;;;;;19.78;59.71;93031.16;2074596;69;20175;-72
2022/08/03 07:05:15;;;;;;;117.45;58.13;;;;;;;19.90;57.94;93025.84;2075009;69;20163;-73
2022/08/03 07:07:41;;;;;;;5.10;2.50;;;;;;;19.95;58.50;93030.28;2074684;69;20175;-73
2022/08/03 07:10:08;;;;;;;5.85;2.70;;;;;;;20.06;60.80;93025.59;2071290;69;20167;-72
2022/08/03 07:12:34;;;;;;;5.55;2.17;;;;;;;20.20;59.50;93022.44;2074835;69;20588;-73
2022/08/03 07:15:00;;;;;;;12.57;2.97;;;;;;;20.27;58.88;93027.69;2074625;69;20171;-73
2022/08/03 07:17:26;;;;;;;7.07;2.00;;;;;;;20.39;59.68;93024.47;2074623;69;20267;-73
2022/08/03 07:19:52;;;;;;;7.55;2.50;;;;;;;20.45;58.52;93024.63;2074448;69;20600;-73
2022/08/03 07:22:18;;;;;;;30.30;16.00;;;;;;;20.51;58.32;93024.84;2074580;69;20144;-73
2022/08/03 07:24:44;;;;;;;10.15;3.10;;;;;;;20.64;59.62;93020.19;2074705;69;20144;-73
2022/08/03 07:27:10;;;;;;;7.28;2.70;;;;;;;20.74;58.03;93016.91;2074768;69;20175;-73
2022/08/03 07:29:36;;;;;;;6.38;2.38;;;;;;;20.83;59.38;93023.56;2071182;69;20144;-73
2022/08/03 07:32:03;;;;;;;11.85;4.10;;;;;;;20.99;60.00;93015.44;2074483;69;20175;-73
2022/08/03 07:34:29;;;;;;;22.42;9.77;;;;;;;21.22;59.54;93017.50;2074486;69;20148;-73
2022/08/03 07:36:54;;;;;;;9.38;2.65;;;;;;;21.57;60.90;93021.25;2074427;69;20148;-73
2022/08/03 07:39:20;;;;;;;86.45;40.78;;;;;;;21.90;61.45;93010.59;2074579;69;20217;-73
2022/08/03 07:41:46;;;;;;;58.38;29.73;;;;;;;22.17;59.38;93015.53;2074635;69;20172;-74
2022/08/03 07:44:12;;;;;;;5.85;2.40;;;;;;;22.43;58.11;93011.81;2072552;69;20200;-73
2022/08/03 07:46:38;;;;;;;6.25;2.50;;;;;;;22.93;57.99;93015.03;2071227;69;20160;-73
2022/08/03 07:49:04;;;;;;;5.75;3.33;;;;;;;23.13;56.17;93011.09;2071261;69;20563;-73
2022/08/03 07:51:29;;;;;;;6.22;2.40;;;;;;;23.48;54.97;92998.09;2071191;69;20205;-72
2022/08/03 07:53:56;;;;;;;9.15;2.97;;;;;;;23.56;54.75;92995.38;2071351;69;20140;-73
2022/08/03 07:56:23;;;;;;;6.57;2.40;;;;;;;24.05;54.38;92996.91;2067773;69;20156;-72
2022/08/03 07:58:50;;;;;;;13.57;4.75;;;;;;;24.40;52.97;92996.69;2071742;69;20156;-72
2022/08/03 08:01:18;;;;;;;6.18;2.30;;;;;;;24.60;51.06;92991.22;2074469;69;20227;-72
2022/08/03 08:03:47;;;;;;;9.55;2.83;;;;;;;24.95;52.03;92988.75;2074323;69;20221;-73
2022/08/03 08:06:13;;;;;;;9.38;2.90;;;;;;;25.26;50.85;92989.88;2074499;69;20174;-74
2022/08/03 08:08:39;;;;;;;3.22;2.15;;;;;;;25.53;46.97;92990.84;2070602;69;20239;-73
2022/08/03 08:11:05;;;;;;;6.22;2.50;;;;;;;26.04;45.38;92989.16;2074013;69;20159;-74
2022/08/03 08:13:31;;;;;;;6.28;2.42;;;;;;;25.99;45.00;92984.78;2074180;69;20267;-76
2022/08/03 08:15:57;;;;;;;18.05;4.05;;;;;;;25.65;42.44;92982.31;2070247;69;20556;-74
2022/08/03 08:18:23;;;;;;;6.80;2.38;;;;;;;25.99;43.62;92986.94;2073800;69;20189;-75
2022/08/03 08:20:49;;;;;;;10.20;2.45;;;;;;;26.07;44.69;92975.44;2074262;69;20212;-74
2022/08/03 08:23:21;;;;;;;9.93;2.80;;;;;;;26.40;43.00;92979.28;2074388;69;20175;-74
2022/08/03 08:25:48;;;;;;;8.70;3.00;;;;;;;26.57;44.47;92977.97;2074324;69;20522;-74
2022/08/03 08:28:19;;;;;;;6.20;2.25;;;;;;;27.35;43.56;92975.38;2074077;69;20147;-74
2022/08/03 08:30:45;;;;;;;37.65;4.00;;;;;;;27.91;43.39;92982.00;2073956;69;20188;-74
2022/08/03 08:33:12;;;;;;;8.73;2.63;;;;;;;28.95;40.81;92968.09;2073914;69;20255;-75
2022/08/03 08:35:37;;;;;;;3.63;2.40;;;;;;;27.11;40.27;92973.16;2074058;69;20160;-74
2022/08/03 08:38:03;;;;;;;5.50;2.42;;;;;;;28.68;40.46;92964.53;2073989;69;20160;-75
2022/08/03 08:40:29;;;;;;;3.30;2.10;;;;;;;28.43;39.41;92971.88;2073964;69;20293;-74
2022/08/03 08:42:55;;;;;;;2.60;1.90;;;;;;;27.86;39.19;92973.34;2068230;69;20583;-74
2022/08/03 08:45:20;;;;;;;2.50;2.05;;;;;;;28.13;37.25;92967.53;2074920;69;20687;-75
2022/08/03 08:47:48;;;;;;;3.40;2.20;;;;;;;28.47;36.90;92963.16;2074719;69;20136;-75
2022/08/03 08:50:18;;;;;;;2.40;1.80;;;;;;;28.76;37.31;92960.91;2074939;69;20199;-75
2022/08/03 08:52:47;;;;;;;3.47;2.05;;;;;;;29.44;38.00;92961.34;2074993;69;20579;-75
2022/08/03 08:55:18;;;;;;;3.10;2.10;;;;;;;29.34;35.62;92957.06;2074889;69;20227;-75
2022/08/03 08:57:48;;;;;;;2.05;1.90;;;;;;;29.07;37.52;92953.56;2074944;69;20171;-75
2022/08/03 09:00:14;;;;;;;3.38;2.05;;;;;;;30.42;35.83;92960.63;2075093;69;20147;-75
2022/08/03 09:02:41;;;;;;;2.05;1.80;;;;;;;29.79;37.21;92958.97;2074806;69;20171;-75
2022/08/03 09:05:12;;;;;;;2.58;1.85;;;;;;;29.84;34.55;92954.59;2074753;69;20522;-75
2022/08/03 09:07:39;;;;;;;2.00;1.80;;;;;;;30.55;35.22;92953.25;2074929;69;20180;-75
2022/08/03 09:10:07;;;;;;;1.92;1.73;;;;;;;30.07;32.94;92958.03;2074881;69;20155;-74
2022/08/03 09:12:44;;;;;;;1.90;1.67;;;;;;;29.57;32.47;92954.06;2074844;69;20139;-75
2022/08/03 09:15:37;;;;;;;4.13;1.98;;;;;;;30.25;34.51;92951.38;2074917;69;20266;-75
2022/08/03 09:18:03;;;;;;;2.28;1.70;;;;;;;30.63;35.64;92953.16;2074218;69;20213;-74
2022/08/03 09:20:33;;;;;;;3.33;2.08;;;;;;;30.61;34.24;92944.47;2074844;69;20159;-75
2022/08/03 09:23:03;;;;;;;3.63;2.05;;;;;;;30.11;34.85;92943.47;2074891;69;20136;-75
2022/08/03 09:25:30;;;;;;;1.90;1.63;;;;;;;30.45;30.35;92947.53;2074838;69;20148;-74
2022/08/03 09:28:13;;;;;;;3.67;1.80;;;;;;;30.84;32.58;92942.06;2074865;69;20175;-74
2022/08/03 09:30:42;;;;;;;4.00;2.00;;;;;;;30.99;31.75;92931.72;2074702;69;20209;-74
2022/08/03 09:33:10;;;;;;;4.07;1.75;;;;;;;31.19;32.44;92936.53;2074691;69;20162;-75
2022/08/03 09:35:43;;;;;;;2.00;1.70;;;;;;;30.79;33.10;92932.69;2074778;69;20548;-75
2022/08/03 09:38:14;;;;;;;4.22;1.80;;;;;;;30.56;33.70;92925.63;2074878;69;20166;-73
2022/08/03 09:40:42;;;;;;;2.72;1.88;;;;;;;31.79;33.00;92936.44;2074745;69;20671;-74
2022/08/03 09:43:09;;;;;;;3.47;1.80;;;;;;;31.79;32.92;92927.72;2074743;69;20168;-75
2022/08/03 09:45:38;;;;;;;3.95;2.10;;;;;;;32.21;32.20;92929.25;2074621;69;20180;-76
2022/08/03 09:48:22;;;;;;;2.00;1.80;;;;;;;32.13;29.22;92935.91;2074534;69;20139;-75
2022/08/03 09:50:55;;;;;;;3.63;1.67;;;;;;;32.75;30.97;92935.56;2071359;69;20156;-75
2022/08/03 09:53:22;;;;;;;2.13;1.90;;;;;;;32.58;30.86;92929.34;2074553;69;20614;-75
2022/08/03 09:55:51;;;;;;;2.45;2.00;;;;;;;31.43;30.94;92929.72;2071664;69;20636;-75
2022/08/03 09:58:16;;;;;;;2.45;1.83;;;;;;;32.64;31.81;92931.41;2070946;69;20164;-74
2022/08/03 10:01:00;;;;;;;4.57;2.00;;;;;;;32.25;30.21;92920.41;2071093;69;20642;-76
2022/08/03 10:03:30;;;;;;;3.00;1.95;;;;;;;32.37;30.96;92920.22;2070898;69;20288;-75
2022/08/03 10:05:56;;;;;;;2.67;1.80;;;;;;;33.39;30.27;92914.59;2070972;69;20137;-75
2022/08/03 10:08:22;;;;;;;3.10;1.70;;;;;;;33.12;29.01;92918.06;2071152;69;20308;-75
2022/08/03 10:10:52;;;;;;;2.92;1.90;;;;;;;33.37;29.77;92912.44;2071194;69;20691;-74
2022/08/03 10:13:20;;;;;;;3.00;1.75;;;;;;;33.64;28.60;92909.69;2071086;69;20152;-75
2022/08/03 10:15:46;;;;;;;2.30;1.83;;;;;;;32.91;29.31;92908.31;2071259;69;20256;-75
2022/08/03 10:18:12;;;;;;;3.13;1.75;;;;;;;34.06;27.81;92900.69;2071173;69;20133;-75
2022/08/03 10:21:06;;;;;;;2.17;1.70;;;;;;;33.59;28.66;92902.50;2071249;69;20156;-73
2022/08/03 10:23:34;;;;;;;2.67;1.83;;;;;;;33.76;28.81;92894.06;2070292;69;20152;-74
2022/08/03 10:26:03;;;;;;;2.78;1.77;;;;;;;34.83;27.76;92895.06;2071234;69;20160;-75
2022/08/03 10:28:36;;;;;;;2.95;1.52;;;;;;;35.06;26.49;92892.94;2071102;69;20323;-75
2022/08/03 10:31:06;;;;;;;1.83;1.58;;;;;;;35.21;27.49;92887.38;2070855;69;20241;-75
2022/08/03 10:33:36;;;;;;;2.00;1.77;;;;;;;35.54;26.75;92884.22;2071052;69;20216;-75
2022/08/03 10:36:05;;;;;;;3.97;1.40;;;;;;;34.94;27.49;92875.72;2067977;69;20227;-76
2022/08/03 10:38:45;;;;;;;2.88;1.45;;;;;;;36.01;26.10;92879.09;2071026;69;20290;-74
2022/08/03 10:41:12;;;;;;;4.25;1.50;;;;;;;36.60;25.61;92874.91;2067563;69;20166;-74
2022/08/03 10:43:49;;;;;;;1.85;1.70;;;;;;;37.55;25.80;92881.03;2070934;69;20311;-74
2022/08/03 10:46:18;;;;;;;1.58;1.42;;;;;;;37.57;24.19;92869.19;2067545;69;20599;-75
2022/08/03 10:48:46;;;;;;;1.92;1.40;;;;;;;37.27;22.94;92865.91;2067661;69;20251;-75
2022/08/03 10:51:12;;;;;;;2.35;1.45;;;;;;;37.58;23.78;92859.63;2071025;69;20140;-75
2022/08/03 10:53:42;;;;;;;3.28;1.35;;;;;;;37.71;22.74;92862.06;2067702;69;20261;-75
2022/08/03 10:59:58;;;;;;;1.30;1.20;;;;;;;38.80;21.86;92847.28;2053395;70;20144;-74
2022/08/03 11:03:02;;;;;;;3.95;1.38;;;;;;;38.08;22.30;92853.22;2047154;70;20165;-74
2022/08/03 11:05:29;;;;;;;1.85;1.33;;;;;;;41.56;21.01;92861.03;2047129;70;20178;-74
2022/08/03 11:08:18;;;;;;;3.47;1.30;;;;;;;42.36;17.88;92858.03;2044276;70;20161;-74
2022/08/03 11:10:44;;;;;;;1.67;1.40;;;;;;;44.80;17.42;92865.06;2047091;70;20613;-75
2022/08/03 11:13:14;;;;;;;2.45;1.38;;;;;;;45.83;15.22;92867.66;2046268;70;20233;-74
2022/08/03 11:15:44;;;;;;;2.28;1.10;;;;;;;45.43;15.76;92842.22;2043679;70;20382;-74
2022/08/03 11:18:11;;;;;;;1.38;1.20;;;;;;;47.00;15.08;92848.59;2043584;70;20534;-74
2022/08/03 11:20:43;;;;;;;1.85;1.33;;;;;;;45.83;16.37;92841.59;2043328;70;20147;-74
2022/08/03 11:23:09;;;;;;;2.72;1.30;;;;;;;46.78;14.19;92839.06;2043577;70;20628;-74
2022/08/03 11:26:09;;;;;;;2.17;1.20;;;;;;;48.63;13.70;92837.88;2043694;70;20141;-75
2022/08/03 11:28:37;;;;;;;2.38;1.10;;;;;;;49.00;13.09;92838.50;2043481;70;20608;-74
2022/08/03 11:31:41;;;;;;;1.90;1.10;;;;;;;48.36;12.56;92839.34;2043887;70;20257;-75
2022/08/03 11:34:09;;;;;;;3.63;1.35;;;;;;;48.97;13.77;92839.53;2043653;70;20183;-74
2022/08/03 11:37:11;;;;;;;3.00;1.20;;;;;;;49.87;12.67;92831.81;2046446;70;20140;-76
2022/08/03 11:39:44;;;;;;;1.75;1.27;;;;;;;52.31;12.09;92848.03;2050410;70;20248;-75
2022/08/03 11:42:22;;;;;;;3.38;1.40;;;;;;;50.66;12.35;92827.66;2049270;70;20164;-76
2022/08/03 11:44:56;;;;;;;2.97;1.08;;;;;;;50.07;12.36;92827.69;2049528;70;20213;-76
2022/08/03 11:47:23;;;;;;;1.27;1.00;;;;;;;48.63;13.17;92825.22;2050235;70;20146;-75